Time;durP1;ratioP1;P1;durP2;ratioP2;P2;SDS_P1;SDS_P2;PMS_P1;PMS_P2;Temp;Humidity;BMP_temperature;BMP_pressure;BME280_temperature;BME280_humidity;BME280_pressure;Samples;Min_cycle;Max_cycle;Signal;HPM_P1;HPM_P2
2024/01/31 00:01:30;;;;;;;60.47;22.87;;;;;;;;;;5003243;28;20190;-93
2024/01/31 00:04:38;;;;;;;67.73;23.90;;;;;;;;;;5000481;28;20189;-91
2024/01/31 00:07:45;;;;;;;64.93;23.53;;;;;;;;;;5000441;28;20201;-92
2024/01/31 00:10:50;;;;;;;61.03;23.53;;;;;;;;;;5000740;28;20178;-92
2024/01/31 00:13:56;;;;;;;67.63;24.40;;;;;;;;;;5001646;28;20193;-91
2024/01/31 00:17:03;;;;;;;66.33;23.97;;;;;;;;;;5000120;28;20282;-92
2024/01/31 00:20:09;;;;;;;65.83;24.03;;;;;;;;;;5001078;28;20186;-90
2024/01/31 00:23:16;;;;;;;63.23;23.30;;;;;;;;;;4988751;28;20190;-93
2024/01/31 00:29:40;;;;;;;60.30;23.87;;;;;;;;;;5001329;28;20178;-90
2024/01/31 00:32:45;;;;;;;67.67;25.10;;;;;;;;;;5000980;28;20180;-92
2024/01/31 00:35:52;;;;;;;63.93;23.07;;;;;;;;;;4990690;28;20222;-90
2024/01/31 00:39:14;;;;;;;57.37;23.63;;;;;;;;;;5002716;28;20206;-91
2024/01/31 00:42:21;;;;;;;63.93;24.87;;;;;;;;;;4989780;28;20197;-92
2024/01/31 00:45:29;;;;;;;62.17;23.13;;;;;;;;;;5004184;28;20246;-93
2024/01/31 00:48:35;;;;;;;65.53;24.63;;;;;;;;;;5001670;28;20193;-91
2024/01/31 00:51:45;;;;;;;69.63;25.10;;;;;;;;;;5001827;28;20174;-92
2024/01/31 00:58:12;;;;;;;59.57;23.53;;;;;;;;;;5002821;28;20202;-92
2024/01/31 01:01:18;;;;;;;67.10;24.50;;;;;;;;;;5004216;28;20278;-90
2024/01/31 01:04:24;;;;;;;67.07;24.73;;;;;;;;;;4999259;28;20253;-90
2024/01/31 01:07:30;;;;;;;67.27;24.80;;;;;;;;;;4998646;28;20559;-91
2024/01/31 01:10:36;;;;;;;67.50;25.20;;;;;;;;;;4998105;28;20230;-93
2024/01/31 01:13:44;;;;;;;62.27;22.80;;;;;;;;;;4976457;28;20260;-93
2024/01/31 01:16:49;;;;;;;61.73;23.13;;;;;;;;;;5003065;28;20198;-91
2024/01/31 01:19:54;;;;;;;61.40;23.60;;;;;;;;;;4994703;28;20178;-91
2024/01/31 01:23:00;;;;;;;63.90;24.43;;;;;;;;;;4993960;28;20251;-94
2024/01/31 01:26:08;;;;;;;60.13;23.20;;;;;;;;;;5004277;28;20190;-93
2024/01/31 01:29:17;;;;;;;60.23;23.17;;;;;;;;;;5004389;28;20245;-93
2024/01/31 01:32:23;;;;;;;66.47;23.90;;;;;;;;;;5006538;28;20194;-93
2024/01/31 01:35:30;;;;;;;69.60;26.37;;;;;;;;;;5006804;28;20217;-91
2024/01/31 01:38:36;;;;;;;62.10;22.93;;;;;;;;;;5004461;28;20676;-91
2024/01/31 01:41:41;;;;;;;64.07;24.23;;;;;;;;;;4991156;28;20269;-94
2024/01/31 01:44:49;;;;;;;63.43;23.77;;;;;;;;;;4990917;28;20198;-93
2024/01/31 01:48:01;;;;;;;63.73;24.23;;;;;;;;;;5002813;28;20190;-93
2024/01/31 01:51:07;;;;;;;58.37;23.30;;;;;;;;;;5004649;28;20222;-92
2024/01/31 01:54:13;;;;;;;58.77;23.30;;;;;;;;;;5004814;28;20205;-93
2024/01/31 01:57:23;;;;;;;68.17;23.57;;;;;;;;;;5004827;28;20253;-91
2024/01/31 02:00:32;;;;;;;63.90;24.43;;;;;;;;;;4992968;28;20267;-93
2024/01/31 02:03:38;;;;;;;65.50;24.43;;;;;;;;;;4992353;28;20241;-91
2024/01/31 02:06:43;;;;;;;66.97;24.80;;;;;;;;;;4992501;28;20201;-90
2024/01/31 02:09:49;;;;;;;61.73;23.53;;;;;;;;;;4991728;28;20198;-93
2024/01/31 02:12:54;;;;;;;64.13;23.80;;;;;;;;;;4990842;28;20182;-92
2024/01/31 02:16:01;;;;;;;63.50;24.30;;;;;;;;;;5001153;28;20217;-92
2024/01/31 02:19:06;;;;;;;55.17;22.50;;;;;;;;;;5002276;28;20556;-94
2024/01/31 02:22:16;;;;;;;66.33;23.87;;;;;;;;;;5000845;28;20197;-92
2024/01/31 02:25:22;;;;;;;58.70;23.33;;;;;;;;;;5000796;28;20190;-92
2024/01/31 02:28:27;;;;;;;64.87;24.00;;;;;;;;;;5001369;28;20186;-92
2024/01/31 02:31:32;;;;;;;59.63;23.47;;;;;;;;;;4987198;28;20190;-92
2024/01/31 02:34:39;;;;;;;60.07;23.27;;;;;;;;;;4987602;28;20210;-93
2024/01/31 02:37:45;;;;;;;59.23;23.07;;;;;;;;;;5001304;28;20182;-94
2024/01/31 02:40:51;;;;;;;54.10;22.17;;;;;;;;;;4991583;28;20197;-94
2024/01/31 02:43:56;;;;;;;57.20;22.60;;;;;;;;;;5003185;28;20205;-93
2024/01/31 02:47:02;;;;;;;61.03;23.33;;;;;;;;;;5003900;28;20553;-92
2024/01/31 02:50:07;;;;;;;59.77;21.93;;;;;;;;;;5002481;28;20264;-92
2024/01/31 02:53:15;;;;;;;59.60;21.93;;;;;;;;;;5004289;28;20218;-92
2024/01/31 02:56:20;;;;;;;52.77;20.90;;;;;;;;;;5003218;28;20532;-93
2024/01/31 02:59:25;;;;;;;59.73;22.40;;;;;;;;;;5002999;28;20257;-93
2024/01/31 03:02:30;;;;;;;59.13;21.83;;;;;;;;;;5002615;28;20201;-93
2024/01/31 03:05:35;;;;;;;59.43;22.17;;;;;;;;;;5000932;28;20193;-93
2024/01/31 03:08:43;;;;;;;56.43;23.03;;;;;;;;;;4991005;28;20177;-93
2024/01/31 03:11:48;;;;;;;55.70;21.93;;;;;;;;;;5002715;28;20177;-92
2024/01/31 03:14:54;;;;;;;57.60;21.60;;;;;;;;;;5002257;28;20186;-93
2024/01/31 03:18:00;;;;;;;54.73;21.80;;;;;;;;;;5000509;28;20170;-92
2024/01/31 03:21:06;;;;;;;60.73;22.00;;;;;;;;;;5000510;28;20254;-93
2024/01/31 03:24:15;;;;;;;61.53;22.20;;;;;;;;;;4990118;28;20170;-93
2024/01/31 03:27:20;;;;;;;80.27;28.30;;;;;;;;;;5001484;28;20202;-91
2024/01/31 03:30:26;;;;;;;79.37;28.20;;;;;;;;;;5000325;28;20261;-93
2024/01/31 03:33:31;;;;;;;59.23;22.30;;;;;;;;;;4999602;28;20181;-93
2024/01/31 03:36:37;;;;;;;56.23;21.30;;;;;;;;;;5000022;28;20210;-91
2024/01/31 03:39:43;;;;;;;55.97;21.33;;;;;;;;;;4988035;28;20177;-94
2024/01/31 03:42:50;;;;;;;55.70;21.73;;;;;;;;;;4988779;28;20197;-92
2024/01/31 03:45:56;;;;;;;54.80;21.10;;;;;;;;;;5001548;28;20194;-92
2024/01/31 03:49:01;;;;;;;53.90;21.47;;;;;;;;;;4989926;28;20195;-94
2024/01/31 03:52:07;;;;;;;55.80;21.57;;;;;;;;;;5000162;28;20197;-93
2024/01/31 03:55:14;;;;;;;52.13;19.87;;;;;;;;;;4997420;28;20210;-93
2024/01/31 03:58:20;;;;;;;55.20;21.33;;;;;;;;;;4999979;28;20185;-93
2024/01/31 04:01:25;;;;;;;57.83;21.97;;;;;;;;;;5000192;28;20277;-94
2024/01/31 04:04:30;;;;;;;56.70;21.73;;;;;;;;;;5000788;28;20198;-91
2024/01/31 04:07:36;;;;;;;55.83;21.43;;;;;;;;;;4999145;28;20225;-93
2024/01/31 04:10:43;;;;;;;56.80;21.63;;;;;;;;;;5001178;28;20185;-92
2024/01/31 04:13:52;;;;;;;56.97;21.63;;;;;;;;;;5003377;28;20181;-93
2024/01/31 04:16:57;;;;;;;58.40;22.23;;;;;;;;;;4990298;28;20209;-93
2024/01/31 04:20:03;;;;;;;56.13;21.67;;;;;;;;;;5003335;28;20551;-92
2024/01/31 04:23:08;;;;;;;55.80;21.73;;;;;;;;;;4989498;28;20648;-92
2024/01/31 04:26:42;;;;;;;69.97;23.20;;;;;;;;;;4990066;28;20197;-92
2024/01/31 04:29:50;;;;;;;61.93;21.90;;;;;;;;;;5002412;28;20181;-93
2024/01/31 04:32:56;;;;;;;55.97;21.77;;;;;;;;;;5002094;28;20186;-93
2024/01/31 04:36:01;;;;;;;54.43;21.37;;;;;;;;;;5000482;28;20209;-93
2024/01/31 04:39:06;;;;;;;56.70;22.60;;;;;;;;;;5000850;28;20197;-94
2024/01/31 04:42:12;;;;;;;52.50;20.53;;;;;;;;;;5000385;28;20246;-92
2024/01/31 04:45:18;;;;;;;55.00;22.43;;;;;;;;;;5000003;28;20623;-94
2024/01/31 04:48:24;;;;;;;54.03;22.17;;;;;;;;;;4989377;28;20180;-94
2024/01/31 04:54:50;;;;;;;52.17;21.93;;;;;;;;;;5005129;28;20242;-93
2024/01/31 04:57:56;;;;;;;64.00;23.37;;;;;;;;;;5005616;28;20190;-92
2024/01/31 05:01:04;;;;;;;56.70;21.73;;;;;;;;;;5005523;28;20330;-93
2024/01/31 05:04:10;;;;;;;59.93;21.03;;;;;;;;;;5005123;28;20193;-93
2024/01/31 05:07:15;;;;;;;55.50;22.63;;;;;;;;;;5005383;28;20213;-94
2024/01/31 05:10:22;;;;;;;54.30;21.57;;;;;;;;;;5005390;28;20185;-92
2024/01/31 05:13:27;;;;;;;56.53;21.27;;;;;;;;;;5005012;28;20186;-93
2024/01/31 05:16:38;;;;;;;56.43;21.07;;;;;;;;;;4993189;28;20212;-94
2024/01/31 05:19:44;;;;;;;52.83;20.47;;;;;;;;;;5002695;28;20186;-91
2024/01/31 05:22:50;;;;;;;50.90;20.63;;;;;;;;;;4993748;28;20213;-92
2024/01/31 05:25:56;;;;;;;55.57;20.97;;;;;;;;;;5004826;28;20209;-90
2024/01/31 05:29:01;;;;;;;55.27;21.40;;;;;;;;;;5005971;28;20254;-93
2024/01/31 05:32:09;;;;;;;57.43;20.77;;;;;;;;;;4992733;28;20190;-93
2024/01/31 05:35:15;;;;;;;62.53;22.67;;;;;;;;;;5005374;28;20198;-92
2024/01/31 05:38:21;;;;;;;64.07;23.30;;;;;;;;;;5003621;28;20202;-94
2024/01/31 05:41:31;;;;;;;57.33;22.47;;;;;;;;;;4993891;28;20198;-92
2024/01/31 05:44:38;;;;;;;56.40;21.33;;;;;;;;;;5004725;28;20263;-92
2024/01/31 05:47:47;;;;;;;58.30;21.20;;;;;;;;;;4994349;28;20185;-93
2024/01/31 05:50:53;;;;;;;49.97;20.33;;;;;;;;;;4992472;28;20197;-91
2024/01/31 05:57:19;;;;;;;51.17;20.80;;;;;;;;;;4971814;28;20320;-92
2024/01/31 06:00:29;;;;;;;54.87;21.07;;;;;;;;;;4991967;28;20242;-92
2024/01/31 06:03:37;;;;;;;58.70;21.17;;;;;;;;;;4993666;28;20237;-90
2024/01/31 06:06:51;;;;;;;61.67;21.60;;;;;;;;;;4992597;28;20214;-94
2024/01/31 06:10:00;;;;;;;51.57;20.60;;;;;;;;;;4997627;28;20189;-93
2024/01/31 06:13:06;;;;;;;57.37;21.30;;;;;;;;;;4994402;28;20194;-91
2024/01/31 06:16:11;;;;;;;54.73;20.87;;;;;;;;;;5003192;28;20209;-91
2024/01/31 06:19:33;;;;;;;56.13;20.90;;;;;;;;;;5005861;28;20190;-94
2024/01/31 06:22:40;;;;;;;51.47;19.77;;;;;;;;;;4991845;28;20209;-92
2024/01/31 06:25:52;;;;;;;46.93;19.50;;;;;;;;;;5007178;28;20206;-95
2024/01/31 06:28:59;;;;;;;58.30;21.03;;;;;;;;;;5007341;28;20178;-93
2024/01/31 06:32:05;;;;;;;50.23;19.20;;;;;;;;;;5007468;28;20190;-92
2024/01/31 06:35:12;;;;;;;51.43;20.47;;;;;;;;;;4996040;28;20644;-93
2024/01/31 14:50:17;;;;;;;50.17;20.77;;;;;;;;;;4962836;28;20235;-93
2024/01/31 14:53:29;;;;;;;42.33;19.80;;;;;;;;;;4960861;28;20250;-93
2024/01/31 14:56:47;;;;;;;47.70;20.60;;;;;;;;;;4951753;28;20332;-90
2024/01/31 14:59:54;;;;;;;42.93;20.40;;;;;;;;;;4963826;28;20293;-91
2024/01/31 15:02:59;;;;;;;46.60;20.60;;;;;;;;;;4953821;28;20186;-93
2024/01/31 15:06:13;;;;;;;43.27;20.03;;;;;;;;;;4954038;28;20191;-91
2024/01/31 15:09:19;;;;;;;46.90;20.40;;;;;;;;;;4965259;28;20244;-92
2024/01/31 15:12:25;;;;;;;48.33;21.20;;;;;;;;;;4951572;28;20226;-93
2024/01/31 15:15:30;;;;;;;42.60;20.53;;;;;;;;;;4965686;28;20187;-91
2024/01/31 15:18:36;;;;;;;52.33;20.70;;;;;;;;;;4953737;28;20211;-92
2024/01/31 15:21:46;;;;;;;41.90;19.47;;;;;;;;;;4951267;28;20179;-91
2024/01/31 15:24:53;;;;;;;48.17;21.00;;;;;;;;;;4962873;28;20179;-91
2024/01/31 15:27:59;;;;;;;110.40;43.20;;;;;;;;;;4962212;28;20203;-93
2024/01/31 15:31:06;;;;;;;68.87;27.67;;;;;;;;;;4951682;28;20168;-91
2024/01/31 15:34:15;;;;;;;48.03;21.30;;;;;;;;;;4953296;28;20175;-91
2024/01/31 15:37:24;;;;;;;45.67;21.20;;;;;;;;;;4954046;28;20280;-92
2024/01/31 15:40:30;;;;;;;44.00;21.57;;;;;;;;;;4955604;28;20183;-93
2024/01/31 15:46:55;;;;;;;51.37;23.03;;;;;;;;;;4967052;28;20230;-92
2024/01/31 15:50:01;;;;;;;51.10;22.73;;;;;;;;;;4956156;28;20195;-94
2024/01/31 15:53:12;;;;;;;55.80;25.10;;;;;;;;;;4955445;28;20203;-92
2024/01/31 15:56:19;;;;;;;52.60;23.30;;;;;;;;;;4953870;28;20180;-91
2024/01/31 15:59:27;;;;;;;53.93;24.03;;;;;;;;;;4933885;29;20183;-91
2024/01/31 16:02:32;;;;;;;53.27;22.90;;;;;;;;;;4956276;28;20215;-91
2024/01/31 16:05:41;;;;;;;51.73;22.67;;;;;;;;;;4935021;29;20188;-91
2024/01/31 16:08:55;;;;;;;59.07;24.90;;;;;;;;;;4948872;28;20269;-93
2024/01/31 16:12:01;;;;;;;62.67;23.63;;;;;;;;;;4963102;28;20257;-92
2024/01/31 16:15:17;;;;;;;63.80;25.53;;;;;;;;;;4954351;28;20312;-93
2024/01/31 16:18:28;;;;;;;56.40;24.93;;;;;;;;;;4938863;29;20926;-91
2024/01/31 16:21:35;;;;;;;49.87;23.20;;;;;;;;;;4962685;28;20247;-93
2024/01/31 16:24:46;;;;;;;49.10;22.50;;;;;;;;;;4953913;28;20191;-92
2024/01/31 16:27:54;;;;;;;61.47;22.57;;;;;;;;;;4935220;29;20203;-91
2024/01/31 16:31:04;;;;;;;52.93;22.23;;;;;;;;;;4951533;28;20202;-91
2024/01/31 16:37:31;;;;;;;63.23;27.40;;;;;;;;;;4953095;28;20219;-92
2024/01/31 16:40:46;;;;;;;59.97;25.60;;;;;;;;;;4953254;28;20191;-91
2024/01/31 16:43:55;;;;;;;54.30;23.67;;;;;;;;;;4964742;28;20199;-92
2024/01/31 16:47:02;;;;;;;58.80;24.43;;;;;;;;;;4965480;28;20206;-91
2024/01/31 16:50:08;;;;;;;65.43;28.57;;;;;;;;;;4955704;28;20175;-91
2024/01/31 16:53:13;;;;;;;71.93;28.73;;;;;;;;;;4954080;28;20223;-90
2024/01/31 16:56:23;;;;;;;57.10;23.47;;;;;;;;;;4946047;29;20179;-90
2024/01/31 16:59:30;;;;;;;55.37;24.43;;;;;;;;;;4934903;29;20180;-90
2024/01/31 17:05:58;;;;;;;66.27;26.47;;;;;;;;;;4968454;28;20227;-88
2024/01/31 17:09:05;;;;;;;76.40;30.23;;;;;;;;;;4960164;28;20222;-93
2024/01/31 17:12:14;;;;;;;65.77;27.67;;;;;;;;;;4969501;28;20214;-90
2024/01/31 17:15:24;;;;;;;75.67;28.23;;;;;;;;;;4966822;28;20215;-91
2024/01/31 17:18:30;;;;;;;62.00;26.03;;;;;;;;;;4956089;28;20222;-92
2024/01/31 17:24:57;;;;;;;82.83;34.73;;;;;;;;;;4970687;28;20219;-91
2024/01/31 17:28:14;;;;;;;79.97;34.07;;;;;;;;;;4967721;29;20199;-89
2024/01/31 17:31:19;;;;;;;71.17;30.77;;;;;;;;;;4947340;29;20200;-91
2024/01/31 17:34:26;;;;;;;70.20;31.27;;;;;;;;;;4943968;28;20199;-91
2024/01/31 17:37:31;;;;;;;69.97;29.87;;;;;;;;;;4967850;28;20211;-91
2024/01/31 17:40:40;;;;;;;61.27;26.97;;;;;;;;;;4947033;28;20332;-93
2024/01/31 17:43:48;;;;;;;56.27;23.33;;;;;;;;;;4948196;29;20211;-91
2024/01/31 17:46:54;;;;;;;62.37;23.83;;;;;;;;;;4944640;28;20192;-91
2024/01/31 17:49:59;;;;;;;67.33;28.37;;;;;;;;;;4961377;29;20203;-92
2024/01/31 17:53:07;;;;;;;60.23;27.23;;;;;;;;;;4962231;28;20220;-90
2024/01/31 17:56:14;;;;;;;62.23;25.60;;;;;;;;;;4964795;28;20338;-91
2024/01/31 17:59:21;;;;;;;56.67;24.80;;;;;;;;;;4965576;28;20223;-90
2024/01/31 18:02:26;;;;;;;61.33;25.33;;;;;;;;;;4951134;28;20211;-90
2024/01/31 18:05:32;;;;;;;55.57;24.27;;;;;;;;;;4952761;29;20207;-92
2024/01/31 18:08:38;;;;;;;53.00;24.60;;;;;;;;;;4959626;28;20198;-89
2024/01/31 18:11:53;;;;;;;61.27;23.07;;;;;;;;;;4955710;28;20211;-91
2024/01/31 18:15:00;;;;;;;51.63;22.30;;;;;;;;;;4960531;28;20203;-91
2024/01/31 18:18:09;;;;;;;57.47;24.03;;;;;;;;;;4945139;29;20251;-91
2024/01/31 18:41:48;;;;;;;64.13;26.17;;;;;;;;;;6048044;23;20184;-93
2024/01/31 18:44:56;;;;;;;59.40;25.10;;;;;;;;;;4981370;28;20272;-92
2024/01/31 18:48:02;;;;;;;55.77;25.23;;;;;;;;;;4962809;29;20199;-90
2024/01/31 18:51:11;;;;;;;54.33;24.33;;;;;;;;;;4963491;29;20535;-91
2024/01/31 18:54:18;;;;;;;55.47;23.77;;;;;;;;;;4966186;28;20210;-92
2024/01/31 18:57:29;;;;;;;53.90;25.27;;;;;;;;;;4962781;28;20296;-91
2024/01/31 19:00:36;;;;;;;56.73;25.23;;;;;;;;;;4985515;28;20214;-92
2024/01/31 19:03:44;;;;;;;55.90;25.27;;;;;;;;;;4989736;28;20182;-91
2024/01/31 19:06:53;;;;;;;62.17;25.97;;;;;;;;;;4972685;28;20210;-92
2024/01/31 19:09:59;;;;;;;61.70;26.13;;;;;;;;;;4959504;29;20326;-92
2024/01/31 19:13:06;;;;;;;59.97;25.20;;;;;;;;;;4981582;28;20226;-93
2024/01/31 19:16:12;;;;;;;59.90;25.43;;;;;;;;;;4958630;29;20255;-92
2024/01/31 19:19:19;;;;;;;62.90;25.87;;;;;;;;;;4968161;28;20269;-91
2024/01/31 19:22:26;;;;;;;54.70;24.60;;;;;;;;;;4969751;29;20210;-90
2024/01/31 19:25:31;;;;;;;58.97;25.27;;;;;;;;;;4952919;29;20292;-93
2024/01/31 19:28:37;;;;;;;61.20;25.50;;;;;;;;;;4972347;28;20201;-93
2024/01/31 19:31:43;;;;;;;62.33;26.70;;;;;;;;;;4977215;28;20210;-92
2024/01/31 19:34:48;;;;;;;54.07;24.00;;;;;;;;;;4968029;29;20210;-89
2024/01/31 19:37:53;;;;;;;53.83;24.77;;;;;;;;;;4958293;29;20230;-89
2024/01/31 19:40:59;;;;;;;52.67;23.90;;;;;;;;;;4955093;29;20202;-91
2024/01/31 19:44:35;;;;;;;62.03;26.03;;;;;;;;;;4969328;28;20666;-92
2024/01/31 19:47:43;;;;;;;54.60;23.47;;;;;;;;;;4970179;28;20278;-91
2024/01/31 19:50:52;;;;;;;49.90;22.50;;;;;;;;;;4974033;28;20238;-90
2024/01/31 19:54:02;;;;;;;50.17;22.70;;;;;;;;;;4974020;28;20186;-89
2024/01/31 19:57:11;;;;;;;52.80;24.30;;;;;;;;;;4969975;29;20677;-89
2024/01/31 20:00:20;;;;;;;55.10;23.73;;;;;;;;;;4973453;29;20230;-88
2024/01/31 20:03:30;;;;;;;53.47;25.13;;;;;;;;;;4987807;28;20207;-91
2024/01/31 22:15:42;;;;;;;52.50;23.33;;;;;;;;;;5209301;23;20229;-89
2024/01/31 22:18:54;;;;;;;45.00;21.90;;;;;;;;;;5010687;28;20221;-87
2024/01/31 22:22:00;;;;;;;52.00;22.13;;;;;;;;;;5008720;28;20197;-88
2024/01/31 22:25:09;;;;;;;47.17;21.97;;;;;;;;;;5009169;28;20193;-90
2024/01/31 22:28:16;;;;;;;46.70;21.60;;;;;;;;;;5008198;28;20653;-87
2024/01/31 22:31:26;;;;;;;54.53;22.40;;;;;;;;;;5008437;28;20286;-89
2024/01/31 22:34:33;;;;;;;45.20;21.00;;;;;;;;;;5009377;28;20560;-89
2024/01/31 22:37:38;;;;;;;43.07;21.70;;;;;;;;;;5010098;28;20181;-89
2024/01/31 22:41:14;;;;;;;52.70;21.93;;;;;;;;;;5010385;28;20233;-89
2024/01/31 22:44:26;;;;;;;57.23;24.50;;;;;;;;;;5007837;28;20218;-90
2024/01/31 22:47:36;;;;;;;50.13;22.40;;;;;;;;;;5009219;28;20193;-90
2024/01/31 22:50:43;;;;;;;54.60;20.37;;;;;;;;;;5009947;28;20208;-90
2024/01/31 22:53:51;;;;;;;51.97;21.40;;;;;;;;;;5014046;28;20173;-90
2024/01/31 22:56:57;;;;;;;54.73;24.50;;;;;;;;;;5011885;28;20197;-89
2024/01/31 23:00:07;;;;;;;52.23;22.90;;;;;;;;;;5015540;28;20217;-90
2024/01/31 23:03:14;;;;;;;51.00;23.23;;;;;;;;;;5009626;28;20325;-90
2024/01/31 23:06:19;;;;;;;51.20;23.03;;;;;;;;;;5013615;28;20250;-89
2024/01/31 23:09:24;;;;;;;49.23;22.47;;;;;;;;;;5010407;28;20208;-90
2024/01/31 23:12:30;;;;;;;49.03;21.80;;;;;;;;;;5009519;28;20205;-87
2024/01/31 23:15:35;;;;;;;46.03;20.40;;;;;;;;;;5011722;28;20204;-88
2024/01/31 23:18:42;;;;;;;44.43;20.37;;;;;;;;;;5008975;28;20303;-90
2024/01/31 23:21:47;;;;;;;43.83;20.57;;;;;;;;;;5002273;28;20210;-88
2024/01/31 23:24:52;;;;;;;50.23;20.97;;;;;;;;;;5002015;28;20194;-89
2024/01/31 23:27:57;;;;;;;45.87;21.37;;;;;;;;;;4997656;28;20182;-89
2024/01/31 23:31:02;;;;;;;45.33;20.27;;;;;;;;;;4997593;28;20218;-90
2024/01/31 23:34:10;;;;;;;48.07;20.87;;;;;;;;;;4999838;28;20178;-88
2024/01/31 23:37:15;;;;;;;45.67;20.73;;;;;;;;;;5000530;28;20207;-90
2024/01/31 23:40:20;;;;;;;45.13;21.67;;;;;;;;;;4999302;28;20249;-89
2024/01/31 23:43:26;;;;;;;45.70;21.17;;;;;;;;;;4998427;28;20205;-89
2024/01/31 23:46:32;;;;;;;47.07;21.03;;;;;;;;;;4999836;28;20190;-90
2024/01/31 23:49:38;;;;;;;42.53;20.70;;;;;;;;;;4998565;28;20198;-85
2024/01/31 23:52:43;;;;;;;51.80;22.50;;;;;;;;;;4998897;28;20194;-90
2024/01/31 23:55:49;;;;;;;47.07;20.30;;;;;;;;;;5001013;28;20209;-88
2024/01/31 23:58:54;;;;;;;45.63;20.97;;;;;;;;;;5003663;28;20214;-90
